Connexion S'enregistrer

Connexion à votre compte

Identifiant
Mot de passe
Maintenir la connexion active sur ce site

Créer un compte

Pour valider ce formulaire, vous devez remplir tous les champs.
Nom
Identifiant
Mot de passe
Répétez le mot de passe
Adresse e-mail
Répétez l'adresse e-mail

METAR/TAF de Chambéry

[source: ADDS]
METAR
LFLB 211000Z AUTO VRB03KT 9999 OVC018 07/04 Q1010 NOSIG =
TAF LFLB 210500Z 2106/2206 VRB02KT 6000 BKN020 PROB40 2106/2108 3000 BR PROB40 TEMPO 2120/2124 4000 RA BKN014 SCT080TCU
TAF
TAF LFLB 210500Z 2106/2206 VRB02KT 6000 BKN020 PROB40 2106/2108 3000 BR PROB40 TEMPO 2120/2124 4000 RA BKN014 SCT080TCU =
SR / SS: 06:43 / 16:00 UTC (Lever/Coucher du soleil le 2019-11-21)

 

Webcam de l'Aéroclub - Parking Lima et SW (réactualisation : 5min)

Cliquer ici pour une animation sur les 3 dernières heures / Cliquer sur l'image pour l'agrandir dans une nouvelle fenêtre

 

Webcam de l'Aéroclub - Manche à air et WA (réactualisation : 5min)

Cliquer ici pour une animation sur les 3 dernières heures / Cliquer sur l'image pour l'agrandir dans une nouvelle fenêtre

 

JSN Boot template designed by JoomlaShine.com